sensor_id;sensor_type;location;lat;lon;timestamp;temperature;humidity
7167;DHT22;3625;51.762;14.320;2023-05-18T00:00:07;8.30;99.90
7167;DHT22;3625;51.762;14.320;2023-05-18T00:02:40;8.30;99.90
7167;DHT22;3625;51.762;14.320;2023-05-18T00:05:09;8.20;99.90
7167;DHT22;3625;51.762;14.320;2023-05-18T00:07:38;8.20;99.90
7167;DHT22;3625;51.762;14.320;2023-05-18T00:10:08;8.10;99.90
7167;DHT22;3625;51.762;14.320;2023-05-18T00:12:38;8.10;99.90
7167;DHT22;3625;51.762;14.320;2023-05-18T00:15:09;8.10;99.90
7167;DHT22;3625;51.762;14.320;2023-05-18T00:17:38;8.10;99.90
7167;DHT22;3625;51.762;14.320;2023-05-18T00:20:09;8.00;99.90
7167;DHT22;3625;51.762;14.320;2023-05-18T00:22:38;8.00;99.90
7167;DHT22;3625;51.762;14.320;2023-05-18T00:25:08;8.00;99.90
7167;DHT22;3625;51.762;14.320;2023-05-18T00:27:37;8.00;99.90
7167;DHT22;3625;51.762;14.320;2023-05-18T00:30:06;8.00;99.90
7167;DHT22;3625;51.762;14.320;2023-05-18T00:32:37;7.90;99.90
7167;DHT22;3625;51.762;14.320;2023-05-18T00:35:06;7.90;99.90
7167;DHT22;3625;51.762;14.320;2023-05-18T00:37:35;7.90;99.90
7167;DHT22;3625;51.762;14.320;2023-05-18T00:40:04;7.90;99.90
7167;DHT22;3625;51.762;14.320;2023-05-18T00:42:34;7.90;99.90
7167;DHT22;3625;51.762;14.320;2023-05-18T00:45:04;7.80;99.90
7167;DHT22;3625;51.762;14.320;2023-05-18T00:47:34;7.80;99.90
7167;DHT22;3625;51.762;14.320;2023-05-18T00:50:04;7.80;99.90
7167;DHT22;3625;51.762;14.320;2023-05-18T00:52:34;7.80;99.90
7167;DHT22;3625;51.762;14.320;2023-05-18T00:55:04;7.70;99.90
7167;DHT22;3625;51.762;14.320;2023-05-18T00:57:34;7.70;99.90
7167;DHT22;3625;51.762;14.320;2023-05-18T01:00:05;7.70;99.90
7167;DHT22;3625;51.762;14.320;2023-05-18T01:02:38;7.60;99.90
7167;DHT22;3625;51.762;14.320;2023-05-18T01:05:09;7.60;99.90
7167;DHT22;3625;51.762;14.320;2023-05-18T01:07:38;7.50;99.90
7167;DHT22;3625;51.762;14.320;2023-05-18T01:10:12;7.50;99.90
7167;DHT22;3625;51.762;14.320;2023-05-18T01:12:47;7.40;99.90
7167;DHT22;3625;51.762;14.320;2023-05-18T01:15:19;7.30;99.90
7167;DHT22;3625;51.762;14.320;2023-05-18T01:18:00;7.30;99.90
7167;DHT22;3625;51.762;14.320;2023-05-18T01:20:45;7.20;99.90
7167;DHT22;3625;51.762;14.320;2023-05-18T01:23:55;7.20;99.90
7167;DHT22;3625;51.762;14.320;2023-05-18T01:26:33;7.10;99.90
7167;DHT22;3625;51.762;14.320;2023-05-18T01:29:08;7.00;99.90
7167;DHT22;3625;51.762;14.320;2023-05-18T01:31:39;6.90;99.90
7167;DHT22;3625;51.762;14.320;2023-05-18T01:34:08;6.90;99.90
7167;DHT22;3625;51.762;14.320;2023-05-18T01:36:37;6.80;99.90
7167;DHT22;3625;51.762;14.320;2023-05-18T01:39:05;6.80;99.90
7167;DHT22;3625;51.762;14.320;2023-05-18T01:41:42;6.70;99.90
7167;DHT22;3625;51.762;14.320;2023-05-18T01:44:19;6.70;99.90
7167;DHT22;3625;51.762;14.320;2023-05-18T01:46:56;6.70;99.90
7167;DHT22;3625;51.762;14.320;2023-05-18T01:49:30;6.60;99.90
7167;DHT22;3625;51.762;14.320;2023-05-18T01:52:05;6.50;99.90
7167;DHT22;3625;51.762;14.320;2023-05-18T01:54:42;6.40;99.90
7167;DHT22;3625;51.762;14.320;2023-05-18T01:57:15;6.50;99.90
7167;DHT22;3625;51.762;14.320;2023-05-18T01:59:49;6.40;99.90
7167;DHT22;3625;51.762;14.320;2023-05-18T02:02:18;6.40;99.90
7167;DHT22;3625;51.762;14.320;2023-05-18T02:04:46;6.30;99.90
7167;DHT22;3625;51.762;14.320;2023-05-18T02:07:16;6.30;99.90
7167;DHT22;3625;51.762;14.320;2023-05-18T02:09:45;6.20;99.90
7167;DHT22;3625;51.762;14.320;2023-05-18T02:12:15;6.20;99.90
7167;DHT22;3625;51.762;14.320;2023-05-18T02:14:43;6.20;99.90
7167;DHT22;3625;51.762;14.320;2023-05-18T02:17:12;6.00;99.90
7167;DHT22;3625;51.762;14.320;2023-05-18T02:19:43;6.10;99.90
7167;DHT22;3625;51.762;14.320;2023-05-18T02:22:11;7.70;99.90
7167;DHT22;3625;51.762;14.320;2023-05-18T02:24:40;5.80;99.90
7167;DHT22;3625;51.762;14.320;2023-05-18T02:27:08;5.80;99.90
7167;DHT22;3625;51.762;14.320;2023-05-18T02:29:38;5.70;99.90
7167;DHT22;3625;51.762;14.320;2023-05-18T02:32:07;5.60;99.90
7167;DHT22;3625;51.762;14.320;2023-05-18T02:34:36;5.60;99.90
7167;DHT22;3625;51.762;14.320;2023-05-18T02:37:07;5.70;99.90
7167;DHT22;3625;51.762;14.320;2023-05-18T02:39:36;5.60;99.90
7167;DHT22;3625;51.762;14.320;2023-05-18T02:42:05;5.60;99.90
7167;DHT22;3625;51.762;14.320;2023-05-18T02:44:34;5.40;99.90
7167;DHT22;3625;51.762;14.320;2023-05-18T02:47:04;5.40;99.90
7167;DHT22;3625;51.762;14.320;2023-05-18T02:49:35;5.30;99.90
7167;DHT22;3625;51.762;14.320;2023-05-18T02:52:04;5.30;99.90
7167;DHT22;3625;51.762;14.320;2023-05-18T02:54:33;5.20;99.90
7167;DHT22;3625;51.762;14.320;2023-05-18T02:57:06;5.20;99.90
7167;DHT22;3625;51.762;14.320;2023-05-18T02:59:42;5.10;99.90
7167;DHT22;3625;51.762;14.320;2023-05-18T03:02:12;5.10;99.90
7167;DHT22;3625;51.762;14.320;2023-05-18T03:04:42;5.10;99.90
7167;DHT22;3625;51.762;14.320;2023-05-18T03:07:12;5.00;99.90
7167;DHT22;3625;51.762;14.320;2023-05-18T03:09:41;5.10;99.90
7167;DHT22;3625;51.762;14.320;2023-05-18T03:12:09;5.00;99.90
7167;DHT22;3625;51.762;14.320;2023-05-18T03:14:38;5.10;99.90
7167;DHT22;3625;51.762;14.320;2023-05-18T03:17:06;5.10;99.90
7167;DHT22;3625;51.762;14.320;2023-05-18T03:19:36;5.10;99.90
7167;DHT22;3625;51.762;14.320;2023-05-18T03:22:05;5.20;99.90
7167;DHT22;3625;51.762;14.320;2023-05-18T03:24:33;5.20;99.90
7167;DHT22;3625;51.762;14.320;2023-05-18T03:27:10;5.20;99.90
7167;DHT22;3625;51.762;14.320;2023-05-18T03:29:43;5.10;99.90
7167;DHT22;3625;51.762;14.320;2023-05-18T03:32:12;5.20;99.90
7167;DHT22;3625;51.762;14.320;2023-05-18T03:34:42;5.20;99.90
7167;DHT22;3625;51.762;14.320;2023-05-18T03:37:14;5.10;99.90
7167;DHT22;3625;51.762;14.320;2023-05-18T03:39:43;5.20;99.90
7167;DHT22;3625;51.762;14.320;2023-05-18T03:42:12;5.30;99.90
7167;DHT22;3625;51.762;14.320;2023-05-18T03:44:41;5.20;99.90
7167;DHT22;3625;51.762;14.320;2023-05-18T03:47:12;5.20;99.90
7167;DHT22;3625;51.762;14.320;2023-05-18T03:49:41;5.30;99.90
7167;DHT22;3625;51.762;14.320;2023-05-18T03:52:10;5.40;99.90
7167;DHT22;3625;51.762;14.320;2023-05-18T03:54:41;5.60;99.90
7167;DHT22;3625;51.762;14.320;2023-05-18T03:57:10;5.50;99.90
7167;DHT22;3625;51.762;14.320;2023-05-18T03:59:38;5.60;99.90
7167;DHT22;3625;51.762;14.320;2023-05-18T04:02:07;5.70;99.90
7167;DHT22;3625;51.762;14.320;2023-05-18T04:04:35;5.80;99.90
7167;DHT22;3625;51.762;14.320;2023-05-18T04:07:09;5.90;99.90
7167;DHT22;3625;51.762;14.320;2023-05-18T04:09:41;6.20;99.90
7167;DHT22;3625;51.762;14.320;2023-05-18T04:12:10;6.10;99.90
7167;DHT22;3625;51.762;14.320;2023-05-18T04:14:39;6.30;99.90
7167;DHT22;3625;51.762;14.320;2023-05-18T04:17:08;6.40;99.90
7167;DHT22;3625;51.762;14.320;2023-05-18T04:19:37;6.50;99.90
7167;DHT22;3625;51.762;14.320;2023-05-18T04:22:06;6.60;99.90
7167;DHT22;3625;51.762;14.320;2023-05-18T04:24:37;6.70;99.90
7167;DHT22;3625;51.762;14.320;2023-05-18T04:27:08;6.90;99.90
7167;DHT22;3625;51.762;14.320;2023-05-18T04:29:38;6.80;99.90
7167;DHT22;3625;51.762;14.320;2023-05-18T04:32:10;6.80;99.90
7167;DHT22;3625;51.762;14.320;2023-05-18T04:34:38;6.80;99.90
7167;DHT22;3625;51.762;14.320;2023-05-18T04:37:08;6.80;99.90
7167;DHT22;3625;51.762;14.320;2023-05-18T04:39:38;6.80;99.90
7167;DHT22;3625;51.762;14.320;2023-05-18T04:42:10;6.90;99.90
7167;DHT22;3625;51.762;14.320;2023-05-18T04:44:41;6.90;99.90
7167;DHT22;3625;51.762;14.320;2023-05-18T04:47:10;7.10;99.90
7167;DHT22;3625;51.762;14.320;2023-05-18T04:49:38;7.00;99.90
7167;DHT22;3625;51.762;14.320;2023-05-18T04:52:07;7.10;99.90
7167;DHT22;3625;51.762;14.320;2023-05-18T04:54:38;7.10;99.90
7167;DHT22;3625;51.762;14.320;2023-05-18T04:57:07;7.10;99.90
7167;DHT22;3625;51.762;14.320;2023-05-18T04:59:36;7.10;99.90
7167;DHT22;3625;51.762;14.320;2023-05-18T05:02:04;7.10;99.90
7167;DHT22;3625;51.762;14.320;2023-05-18T05:04:33;7.10;99.90
7167;DHT22;3625;51.762;14.320;2023-05-18T05:07:02;7.10;99.90
7167;DHT22;3625;51.762;14.320;2023-05-18T05:09:30;7.20;99.90
7167;DHT22;3625;51.762;14.320;2023-05-18T05:12:00;7.20;99.90
7167;DHT22;3625;51.762;14.320;2023-05-18T05:14:29;7.30;99.90
7167;DHT22;3625;51.762;14.320;2023-05-18T05:16:58;7.40;99.90
7167;DHT22;3625;51.762;14.320;2023-05-18T05:19:26;7.50;99.90
7167;DHT22;3625;51.762;14.320;2023-05-18T05:21:55;7.50;99.90
7167;DHT22;3625;51.762;14.320;2023-05-18T05:24:24;7.60;99.90
7167;DHT22;3625;51.762;14.320;2023-05-18T05:26:52;7.70;99.90
7167;DHT22;3625;51.762;14.320;2023-05-18T05:29:22;7.80;99.90
7167;DHT22;3625;51.762;14.320;2023-05-18T05:31:52;7.90;99.90
7167;DHT22;3625;51.762;14.320;2023-05-18T05:34:21;8.00;99.90
7167;DHT22;3625;51.762;14.320;2023-05-18T05:36:49;8.00;99.90
7167;DHT22;3625;51.762;14.320;2023-05-18T05:39:18;8.10;99.90
7167;DHT22;3625;51.762;14.320;2023-05-18T05:41:47;8.20;99.90
7167;DHT22;3625;51.762;14.320;2023-05-18T05:44:16;10.40;99.90
7167;DHT22;3625;51.762;14.320;2023-05-18T05:46:46;8.20;99.90
7167;DHT22;3625;51.762;14.320;2023-05-18T05:49:15;8.30;99.90
7167;DHT22;3625;51.762;14.320;2023-05-18T05:51:44;8.40;99.90
7167;DHT22;3625;51.762;14.320;2023-05-18T05:54:16;8.50;99.90
7167;DHT22;3625;51.762;14.320;2023-05-18T05:56:45;8.60;99.90
7167;DHT22;3625;51.762;14.320;2023-05-18T05:59:16;8.70;99.90
7167;DHT22;3625;51.762;14.320;2023-05-18T06:01:47;8.90;99.90
7167;DHT22;3625;51.762;14.320;2023-05-18T06:04:17;8.90;99.90
7167;DHT22;3625;51.762;14.320;2023-05-18T06:06:46;9.00;99.90
7167;DHT22;3625;51.762;14.320;2023-05-18T06:09:16;9.10;99.90
7167;DHT22;3625;51.762;14.320;2023-05-18T06:11:50;9.20;99.90
7167;DHT22;3625;51.762;14.320;2023-05-18T06:14:20;9.30;99.90
7167;DHT22;3625;51.762;14.320;2023-05-18T06:16:50;9.40;99.90
7167;DHT22;3625;51.762;14.320;2023-05-18T06:19:18;9.50;99.90
7167;DHT22;3625;51.762;14.320;2023-05-18T06:21:48;9.40;99.90
7167;DHT22;3625;51.762;14.320;2023-05-18T06:24:17;9.50;99.90
7167;DHT22;3625;51.762;14.320;2023-05-18T06:27:05;9.60;99.90
7167;DHT22;3625;51.762;14.320;2023-05-18T06:29:57;9.60;99.90
7167;DHT22;3625;51.762;14.320;2023-05-18T06:32:38;9.80;99.90
7167;DHT22;3625;51.762;14.320;2023-05-18T06:35:07;9.90;99.90
7167;DHT22;3625;51.762;14.320;2023-05-18T06:37:36;10.00;99.90
7167;DHT22;3625;51.762;14.320;2023-05-18T06:40:06;10.20;99.90
7167;DHT22;3625;51.762;14.320;2023-05-18T06:42:36;10.20;99.90
7167;DHT22;3625;51.762;14.320;2023-05-18T06:45:24;10.30;99.90
7167;DHT22;3625;51.762;14.320;2023-05-18T06:47:59;10.30;99.90
7167;DHT22;3625;51.762;14.320;2023-05-18T06:50:29;10.30;99.90
7167;DHT22;3625;51.762;14.320;2023-05-18T06:52:59;10.40;99.90
7167;DHT22;3625;51.762;14.320;2023-05-18T06:55:28;10.50;99.90
7167;DHT22;3625;51.762;14.320;2023-05-18T06:57:58;10.60;99.90
7167;DHT22;3625;51.762;14.320;2023-05-18T07:00:27;10.60;99.90
7167;DHT22;3625;51.762;14.320;2023-05-18T07:02:55;10.60;99.90
7167;DHT22;3625;51.762;14.320;2023-05-18T07:05:26;10.70;99.90
7167;DHT22;3625;51.762;14.320;2023-05-18T07:07:55;10.80;99.90
7167;DHT22;3625;51.762;14.320;2023-05-18T07:10:23;10.90;99.90
7167;DHT22;3625;51.762;14.320;2023-05-18T07:12:52;11.00;99.90
7167;DHT22;3625;51.762;14.320;2023-05-18T07:15:20;12.20;99.90
7167;DHT22;3625;51.762;14.320;2023-05-18T07:17:51;11.10;99.90
7167;DHT22;3625;51.762;14.320;2023-05-18T07:20:20;11.20;99.90
7167;DHT22;3625;51.762;14.320;2023-05-18T07:22:53;11.20;99.90
7167;DHT22;3625;51.762;14.320;2023-05-18T07:25:22;11.20;99.90
7167;DHT22;3625;51.762;14.320;2023-05-18T07:27:52;11.30;99.90
7167;DHT22;3625;51.762;14.320;2023-05-18T07:30:21;11.30;99.90
7167;DHT22;3625;51.762;14.320;2023-05-18T07:32:50;11.40;99.90
7167;DHT22;3625;51.762;14.320;2023-05-18T07:35:19;11.50;99.90
7167;DHT22;3625;51.762;14.320;2023-05-18T07:37:49;11.50;99.90
7167;DHT22;3625;51.762;14.320;2023-05-18T07:40:21;11.70;99.90
7167;DHT22;3625;51.762;14.320;2023-05-18T07:42:49;12.00;99.90
7167;DHT22;3625;51.762;14.320;2023-05-18T07:45:18;12.70;99.90
7167;DHT22;3625;51.762;14.320;2023-05-18T07:47:46;12.70;99.90
7167;DHT22;3625;51.762;14.320;2023-05-18T07:50:15;13.00;99.90
7167;DHT22;3625;51.762;14.320;2023-05-18T07:52:43;13.20;99.90
7167;DHT22;3625;51.762;14.320;2023-05-18T07:55:12;13.20;99.90
7167;DHT22;3625;51.762;14.320;2023-05-18T07:57:42;13.40;99.90
7167;DHT22;3625;51.762;14.320;2023-05-18T08:00:11;13.70;99.90
7167;DHT22;3625;51.762;14.320;2023-05-18T08:02:42;14.20;99.90
7167;DHT22;3625;51.762;14.320;2023-05-18T08:05:11;14.30;99.90
7167;DHT22;3625;51.762;14.320;2023-05-18T08:07:40;14.70;99.90
7167;DHT22;3625;51.762;14.320;2023-05-18T08:10:09;15.70;99.90
7167;DHT22;3625;51.762;14.320;2023-05-18T08:12:38;16.50;99.90
7167;DHT22;3625;51.762;14.320;2023-05-18T08:15:09;16.70;99.90
7167;DHT22;3625;51.762;14.320;2023-05-18T08:17:38;17.00;99.90
7167;DHT22;3625;51.762;14.320;2023-05-18T08:20:09;17.20;99.90
7167;DHT22;3625;51.762;14.320;2023-05-18T08:22:38;17.10;99.90
7167;DHT22;3625;51.762;14.320;2023-05-18T08:25:07;17.00;99.90
7167;DHT22;3625;51.762;14.320;2023-05-18T08:27:36;16.70;99.90
7167;DHT22;3625;51.762;14.320;2023-05-18T08:30:06;16.80;99.90
7167;DHT22;3625;51.762;14.320;2023-05-18T08:32:36;17.20;99.90
7167;DHT22;3625;51.762;14.320;2023-05-18T08:35:06;17.30;99.90
7167;DHT22;3625;51.762;14.320;2023-05-18T08:37:36;17.70;99.90
7167;DHT22;3625;51.762;14.320;2023-05-18T08:40:06;18.00;99.90
7167;DHT22;3625;51.762;14.320;2023-05-18T08:42:40;17.90;99.90
7167;DHT22;3625;51.762;14.320;2023-05-18T08:45:22;17.70;99.90
7167;DHT22;3625;51.762;14.320;2023-05-18T08:47:59;17.30;99.90
7167;DHT22;3625;51.762;14.320;2023-05-18T08:50:30;16.50;99.90
7167;DHT22;3625;51.762;14.320;2023-05-18T08:53:01;15.90;99.90
7167;DHT22;3625;51.762;14.320;2023-05-18T08:55:33;15.90;99.90
7167;DHT22;3625;51.762;14.320;2023-05-18T08:58:06;15.90;99.90
7167;DHT22;3625;51.762;14.320;2023-05-18T09:01:10;16.10;99.90
7167;DHT22;3625;51.762;14.320;2023-05-18T09:03:40;17.00;99.90
7167;DHT22;3625;51.762;14.320;2023-05-18T09:06:09;17.60;99.90
7167;DHT22;3625;51.762;14.320;2023-05-18T09:08:39;18.10;99.90
7167;DHT22;3625;51.762;14.320;2023-05-18T09:11:09;17.70;99.90
7167;DHT22;3625;51.762;14.320;2023-05-18T09:13:40;17.50;99.90
7167;DHT22;3625;51.762;14.320;2023-05-18T09:16:11;17.80;99.90
7167;DHT22;3625;51.762;14.320;2023-05-18T09:18:40;17.70;99.90
7167;DHT22;3625;51.762;14.320;2023-05-18T09:21:08;17.80;99.90
7167;DHT22;3625;51.762;14.320;2023-05-18T09:23:38;17.90;99.90
7167;DHT22;3625;51.762;14.320;2023-05-18T09:26:08;18.20;99.90
7167;DHT22;3625;51.762;14.320;2023-05-18T09:28:39;18.40;99.90
7167;DHT22;3625;51.762;14.320;2023-05-18T09:31:16;18.40;99.90
7167;DHT22;3625;51.762;14.320;2023-05-18T09:33:46;18.10;99.90
7167;DHT22;3625;51.762;14.320;2023-05-18T09:36:16;18.40;99.90
7167;DHT22;3625;51.762;14.320;2023-05-18T09:38:51;18.80;99.90
7167;DHT22;3625;51.762;14.320;2023-05-18T09:41:20;18.80;99.90
7167;DHT22;3625;51.762;14.320;2023-05-18T09:43:48;18.30;99.90
7167;DHT22;3625;51.762;14.320;2023-05-18T09:46:20;17.60;99.90
7167;DHT22;3625;51.762;14.320;2023-05-18T09:48:51;16.80;99.90
7167;DHT22;3625;51.762;14.320;2023-05-18T09:51:21;16.50;99.90
7167;DHT22;3625;51.762;14.320;2023-05-18T09:53:55;16.30;99.90
7167;DHT22;3625;51.762;14.320;2023-05-18T09:56:25;16.00;99.90
7167;DHT22;3625;51.762;14.320;2023-05-18T09:58:54;16.40;99.90
7167;DHT22;3625;51.762;14.320;2023-05-18T10:01:24;17.10;99.90
7167;DHT22;3625;51.762;14.320;2023-05-18T10:04:01;17.40;99.90
7167;DHT22;3625;51.762;14.320;2023-05-18T10:06:31;17.70;99.90
7167;DHT22;3625;51.762;14.320;2023-05-18T10:09:01;18.00;99.90
7167;DHT22;3625;51.762;14.320;2023-05-18T10:11:31;18.00;99.90
7167;DHT22;3625;51.762;14.320;2023-05-18T10:14:02;18.00;99.90
7167;DHT22;3625;51.762;14.320;2023-05-18T10:16:32;18.10;99.90
7167;DHT22;3625;51.762;14.320;2023-05-18T10:19:02;17.40;99.90
7167;DHT22;3625;51.762;14.320;2023-05-18T10:21:36;16.10;99.90
7167;DHT22;3625;51.762;14.320;2023-05-18T10:24:06;16.00;99.90
7167;DHT22;3625;51.762;14.320;2023-05-18T10:26:40;15.60;99.90
7167;DHT22;3625;51.762;14.320;2023-05-18T10:29:12;15.80;99.90
7167;DHT22;3625;51.762;14.320;2023-05-18T10:31:44;16.20;99.90
7167;DHT22;3625;51.762;14.320;2023-05-18T10:34:14;16.60;99.90
7167;DHT22;3625;51.762;14.320;2023-05-18T10:36:46;16.70;99.90
7167;DHT22;3625;51.762;14.320;2023-05-18T10:39:15;16.80;99.90
7167;DHT22;3625;51.762;14.320;2023-05-18T10:41:46;17.90;99.90
7167;DHT22;3625;51.762;14.320;2023-05-18T10:44:16;18.30;99.90
7167;DHT22;3625;51.762;14.320;2023-05-18T10:46:46;18.60;99.90
7167;DHT22;3625;51.762;14.320;2023-05-18T10:49:18;18.20;99.90
7167;DHT22;3625;51.762;14.320;2023-05-18T10:51:52;17.00;99.90
7167;DHT22;3625;51.762;14.320;2023-05-18T10:54:21;16.30;99.90
7167;DHT22;3625;51.762;14.320;2023-05-18T10:56:51;16.50;99.90
7167;DHT22;3625;51.762;14.320;2023-05-18T10:59:20;16.30;99.90
7167;DHT22;3625;51.762;14.320;2023-05-18T11:01:52;16.20;99.90
7167;DHT22;3625;51.762;14.320;2023-05-18T11:04:23;16.70;99.90
7167;DHT22;3625;51.762;14.320;2023-05-18T11:06:57;17.20;99.90
7167;DHT22;3625;51.762;14.320;2023-05-18T11:09:27;17.80;99.90
7167;DHT22;3625;51.762;14.320;2023-05-18T11:11:58;17.70;99.90
7167;DHT22;3625;51.762;14.320;2023-05-18T11:14:28;16.80;99.90
7167;DHT22;3625;51.762;14.320;2023-05-18T11:17:17;16.00;99.90
7167;DHT22;3625;51.762;14.320;2023-05-18T11:20:12;16.30;99.90
7167;DHT22;3625;51.762;14.320;2023-05-18T11:22:48;17.00;99.90
7167;DHT22;3625;51.762;14.320;2023-05-18T11:25:43;17.10;99.90
7167;DHT22;3625;51.762;14.320;2023-05-18T11:28:12;17.40;99.90
7167;DHT22;3625;51.762;14.320;2023-05-18T11:30:46;17.50;99.90
7167;DHT22;3625;51.762;14.320;2023-05-18T11:33:23;17.00;99.90
7167;DHT22;3625;51.762;14.320;2023-05-18T11:36:02;16.40;99.90
7167;DHT22;3625;51.762;14.320;2023-05-18T11:38:51;16.50;99.90
7167;DHT22;3625;51.762;14.320;2023-05-18T11:41:28;16.90;99.90
7167;DHT22;3625;51.762;14.320;2023-05-18T11:44:06;17.10;99.90
7167;DHT22;3625;51.762;14.320;2023-05-18T11:46:54;17.70;99.90
7167;DHT22;3625;51.762;14.320;2023-05-18T11:49:30;17.80;99.90
7167;DHT22;3625;51.762;14.320;2023-05-18T11:52:05;18.10;99.90
7167;DHT22;3625;51.762;14.320;2023-05-18T11:54:39;18.80;99.90
7167;DHT22;3625;51.762;14.320;2023-05-18T11:57:10;19.50;99.90
7167;DHT22;3625;51.762;14.320;2023-05-18T11:59:42;20.00;99.90
7167;DHT22;3625;51.762;14.320;2023-05-18T12:02:17;20.10;99.90
7167;DHT22;3625;51.762;14.320;2023-05-18T12:04:51;20.20;99.90
7167;DHT22;3625;51.762;14.320;2023-05-18T12:07:21;20.50;99.90
7167;DHT22;3625;51.762;14.320;2023-05-18T12:09:51;20.80;99.90
7167;DHT22;3625;51.762;14.320;2023-05-18T12:12:19;20.20;99.90
7167;DHT22;3625;51.762;14.320;2023-05-18T12:14:53;19.80;99.90
7167;DHT22;3625;51.762;14.320;2023-05-18T12:17:36;20.50;99.90
7167;DHT22;3625;51.762;14.320;2023-05-18T12:20:09;21.10;99.90
7167;DHT22;3625;51.762;14.320;2023-05-18T12:22:40;21.30;99.90
7167;DHT22;3625;51.762;14.320;2023-05-18T12:25:09;21.50;99.90
7167;DHT22;3625;51.762;14.320;2023-05-18T12:27:39;21.20;99.90
7167;DHT22;3625;51.762;14.320;2023-05-18T12:30:10;20.90;99.90
7167;DHT22;3625;51.762;14.320;2023-05-18T12:32:43;20.90;99.90
7167;DHT22;3625;51.762;14.320;2023-05-18T12:35:14;21.00;99.90
7167;DHT22;3625;51.762;14.320;2023-05-18T12:37:44;21.20;99.90
7167;DHT22;3625;51.762;14.320;2023-05-18T12:40:16;21.10;99.90
7167;DHT22;3625;51.762;14.320;2023-05-18T12:42:52;20.70;99.90
7167;DHT22;3625;51.762;14.320;2023-05-18T12:45:24;20.90;99.90
7167;DHT22;3625;51.762;14.320;2023-05-18T12:47:53;20.90;99.90
7167;DHT22;3625;51.762;14.320;2023-05-18T12:50:24;20.90;99.90
7167;DHT22;3625;51.762;14.320;2023-05-18T12:52:54;21.30;99.90
7167;DHT22;3625;51.762;14.320;2023-05-18T12:55:23;21.90;99.90
7167;DHT22;3625;51.762;14.320;2023-05-18T12:57:59;22.40;99.90
7167;DHT22;3625;51.762;14.320;2023-05-18T13:00:32;22.40;99.90
7167;DHT22;3625;51.762;14.320;2023-05-18T13:03:05;21.50;99.90
7167;DHT22;3625;51.762;14.320;2023-05-18T13:05:40;20.90;99.90
7167;DHT22;3625;51.762;14.320;2023-05-18T13:08:13;20.90;99.90
7167;DHT22;3625;51.762;14.320;2023-05-18T13:10:44;20.00;99.90
7167;DHT22;3625;51.762;14.320;2023-05-18T13:13:21;19.50;99.90
7167;DHT22;3625;51.762;14.320;2023-05-18T13:15:50;19.10;99.90
7167;DHT22;3625;51.762;14.320;2023-05-18T13:18:18;19.10;99.90
7167;DHT22;3625;51.762;14.320;2023-05-18T13:20:52;19.30;99.90
7167;DHT22;3625;51.762;14.320;2023-05-18T13:23:23;19.50;99.90
7167;DHT22;3625;51.762;14.320;2023-05-18T13:25:53;19.90;99.90
7167;DHT22;3625;51.762;14.320;2023-05-18T13:28:26;19.00;99.90
7167;DHT22;3625;51.762;14.320;2023-05-18T13:30:54;19.90;99.90
7167;DHT22;3625;51.762;14.320;2023-05-18T13:33:23;19.80;99.90
7167;DHT22;3625;51.762;14.320;2023-05-18T13:35:54;19.60;99.90
7167;DHT22;3625;51.762;14.320;2023-05-18T13:38:23;19.30;99.90
7167;DHT22;3625;51.762;14.320;2023-05-18T13:40:52;19.00;99.90
7167;DHT22;3625;51.762;14.320;2023-05-18T13:43:21;19.00;99.90
7167;DHT22;3625;51.762;14.320;2023-05-18T13:45:50;18.60;99.90
7167;DHT22;3625;51.762;14.320;2023-05-18T13:48:19;18.90;99.90
7167;DHT22;3625;51.762;14.320;2023-05-18T13:50:47;19.20;99.90
7167;DHT22;3625;51.762;14.320;2023-05-18T13:53:17;19.50;99.90
7167;DHT22;3625;51.762;14.320;2023-05-18T13:55:46;19.80;99.90
7167;DHT22;3625;51.762;14.320;2023-05-18T13:58:14;19.40;99.90
7167;DHT22;3625;51.762;14.320;2023-05-18T14:00:43;19.40;99.90
7167;DHT22;3625;51.762;14.320;2023-05-18T14:03:13;19.70;99.90
7167;DHT22;3625;51.762;14.320;2023-05-18T14:05:43;20.30;99.90
7167;DHT22;3625;51.762;14.320;2023-05-18T14:08:12;20.60;99.90
7167;DHT22;3625;51.762;14.320;2023-05-18T14:10:42;20.90;99.90
7167;DHT22;3625;51.762;14.320;2023-05-18T14:13:10;20.40;99.90
7167;DHT22;3625;51.762;14.320;2023-05-18T14:15:39;20.60;99.90
7167;DHT22;3625;51.762;14.320;2023-05-18T14:18:07;20.60;99.90
7167;DHT22;3625;51.762;14.320;2023-05-18T14:20:36;20.60;99.90
7167;DHT22;3625;51.762;14.320;2023-05-18T14:23:05;20.40;99.90
7167;DHT22;3625;51.762;14.320;2023-05-18T14:25:36;20.40;99.90
7167;DHT22;3625;51.762;14.320;2023-05-18T14:28:06;22.40;99.90
7167;DHT22;3625;51.762;14.320;2023-05-18T14:30:36;21.00;99.90
7167;DHT22;3625;51.762;14.320;2023-05-18T14:33:04;21.10;99.90
7167;DHT22;3625;51.762;14.320;2023-05-18T14:35:33;21.20;99.90
7167;DHT22;3625;51.762;14.320;2023-05-18T14:38:02;21.60;99.90
7167;DHT22;3625;51.762;14.320;2023-05-18T14:40:30;21.90;99.90
7167;DHT22;3625;51.762;14.320;2023-05-18T14:42:59;21.80;99.90
7167;DHT22;3625;51.762;14.320;2023-05-18T14:45:29;21.60;99.90
7167;DHT22;3625;51.762;14.320;2023-05-18T14:47:58;21.60;99.90
7167;DHT22;3625;51.762;14.320;2023-05-18T14:50:26;21.70;99.90
7167;DHT22;3625;51.762;14.320;2023-05-18T14:52:55;21.50;99.90
7167;DHT22;3625;51.762;14.320;2023-05-18T14:55:24;20.90;99.90
7167;DHT22;3625;51.762;14.320;2023-05-18T14:57:53;20.90;99.90
7167;DHT22;3625;51.762;14.320;2023-05-18T15:00:21;21.00;99.90
7167;DHT22;3625;51.762;14.320;2023-05-18T15:02:51;21.10;99.90
7167;DHT22;3625;51.762;14.320;2023-05-18T15:05:20;21.10;99.90
7167;DHT22;3625;51.762;14.320;2023-05-18T15:07:48;21.00;99.90
7167;DHT22;3625;51.762;14.320;2023-05-18T15:10:17;20.50;99.90
7167;DHT22;3625;51.762;14.320;2023-05-18T15:12:46;20.20;99.90
7167;DHT22;3625;51.762;14.320;2023-05-18T15:15:15;19.10;99.90
7167;DHT22;3625;51.762;14.320;2023-05-18T15:17:43;19.00;99.90
7167;DHT22;3625;51.762;14.320;2023-05-18T15:20:14;19.30;99.90
7167;DHT22;3625;51.762;14.320;2023-05-18T15:22:42;19.60;99.90
7167;DHT22;3625;51.762;14.320;2023-05-18T15:25:11;19.50;99.90
7167;DHT22;3625;51.762;14.320;2023-05-18T15:27:39;19.30;99.90
7167;DHT22;3625;51.762;14.320;2023-05-18T15:30:08;18.90;99.90
7167;DHT22;3625;51.762;14.320;2023-05-18T15:32:39;18.60;99.90
7167;DHT22;3625;51.762;14.320;2023-05-18T15:35:08;18.30;99.90
7167;DHT22;3625;51.762;14.320;2023-05-18T15:37:39;18.30;99.90
7167;DHT22;3625;51.762;14.320;2023-05-18T15:40:08;18.00;99.90
7167;DHT22;3625;51.762;14.320;2023-05-18T15:42:36;17.70;99.90
7167;DHT22;3625;51.762;14.320;2023-05-18T15:45:06;17.70;99.90
7167;DHT22;3625;51.762;14.320;2023-05-18T15:47:35;17.80;99.90
7167;DHT22;3625;51.762;14.320;2023-05-18T15:50:05;17.90;99.90
7167;DHT22;3625;51.762;14.320;2023-05-18T15:52:35;17.70;99.90
7167;DHT22;3625;51.762;14.320;2023-05-18T15:55:06;17.40;99.90
7167;DHT22;3625;51.762;14.320;2023-05-18T15:57:35;17.30;99.90
7167;DHT22;3625;51.762;14.320;2023-05-18T16:00:04;17.20;99.90
7167;DHT22;3625;51.762;14.320;2023-05-18T16:02:40;16.90;99.90
7167;DHT22;3625;51.762;14.320;2023-05-18T16:05:09;16.70;99.90
7167;DHT22;3625;51.762;14.320;2023-05-18T16:07:37;16.70;99.90
7167;DHT22;3625;51.762;14.320;2023-05-18T16:10:08;16.70;99.90
7167;DHT22;3625;51.762;14.320;2023-05-18T16:12:37;16.70;99.90
7167;DHT22;3625;51.762;14.320;2023-05-18T16:15:06;16.60;99.90